createdAt,value
2023-02-16T00:01:50.980Z,0.70
2023-02-16T00:05:52.635Z,0.64
2023-02-16T00:09:54.072Z,0.62
2023-02-16T00:13:55.645Z,0.59
2023-02-16T00:18:00.145Z,0.60
2023-02-16T00:22:02.623Z,0.62
2023-02-16T00:26:05.810Z,0.63
2023-02-16T00:30:25.483Z,0.67
2023-02-16T00:34:40.005Z,0.59
2023-02-16T00:38:41.734Z,0.64
2023-02-16T00:42:46.035Z,0.55
2023-02-16T00:46:48.133Z,0.50
2023-02-16T00:50:49.939Z,0.45
2023-02-16T00:54:52.730Z,0.45
2023-02-16T00:58:54.313Z,0.58
2023-02-16T01:02:58.678Z,0.52
2023-02-16T01:07:18.539Z,0.47
2023-02-16T01:11:21.201Z,0.44
2023-02-16T01:15:25.889Z,0.43
2023-02-16T01:19:27.633Z,0.40
2023-02-16T01:23:29.508Z,0.37
2023-02-16T01:27:31.303Z,0.41
2023-02-16T01:31:33.115Z,0.40
2023-02-16T01:35:37.796Z,0.35
2023-02-16T01:39:39.504Z,0.44
2023-02-16T01:43:48.230Z,0.33
2023-02-16T01:47:56.509Z,0.32
2023-02-16T01:52:13.976Z,0.41
2023-02-16T01:56:37.187Z,0.32
2023-02-16T02:00:57.200Z,0.28
2023-02-16T02:05:33.569Z,0.22
2023-02-16T02:09:42.573Z,0.21
2023-02-16T02:13:55.563Z,0.23
2023-02-16T02:17:58.366Z,0.25
2023-02-16T02:22:37.918Z,0.24
2023-02-16T02:27:20.567Z,0.21
2023-02-16T02:31:56.971Z,0.22
2023-02-16T02:36:40.520Z,0.18
2023-02-16T02:41:14.972Z,0.22
2023-02-16T02:45:41.202Z,0.21
2023-02-16T02:49:54.917Z,0.15
2023-02-16T02:54:26.113Z,0.16
2023-02-16T02:59:11.659Z,0.12
2023-02-16T03:03:27.589Z,0.05
2023-02-16T03:07:47.018Z,-0.01
2023-02-16T03:12:09.671Z,0.02
2023-02-16T03:16:23.594Z,-0.02
2023-02-16T03:20:44.716Z,-0.01
2023-02-16T03:25:05.414Z,-0.03
2023-02-16T03:29:22.542Z,-0.09
2023-02-16T03:33:25.577Z,-0.06
2023-02-16T03:37:27.105Z,-0.01
2023-02-16T03:41:33.561Z,0.03
2023-02-16T03:45:39.367Z,-0.03
2023-02-16T03:49:41.075Z,-0.04
2023-02-16T03:53:42.641Z,-0.12
2023-02-16T03:57:44.508Z,-0.09
2023-02-16T04:01:46.476Z,-0.09
2023-02-16T04:05:48.018Z,-0.12
2023-02-16T04:09:49.596Z,-0.07
2023-02-16T04:13:51.168Z,-0.12
2023-02-16T04:17:53.866Z,-0.16
2023-02-16T04:21:55.404Z,-0.09
2023-02-16T04:25:56.912Z,-0.19
2023-02-16T04:29:58.403Z,-0.19
2023-02-16T04:33:59.916Z,-0.25
2023-02-16T04:38:01.438Z,-0.21
2023-02-16T04:42:03.734Z,-0.21
2023-02-16T04:46:05.334Z,-0.30
2023-02-16T04:50:08.178Z,-0.27
2023-02-16T04:54:09.861Z,-0.25
2023-02-16T04:58:11.389Z,-0.33
2023-02-16T05:02:13.083Z,-0.38
2023-02-16T05:06:14.625Z,-0.37
2023-02-16T05:10:16.144Z,-0.40
2023-02-16T05:14:44.406Z,-0.40
2023-02-16T05:18:45.940Z,-0.36
2023-02-16T05:22:47.635Z,-0.28
2023-02-16T05:26:49.148Z,-0.25
2023-02-16T05:30:50.949Z,-0.25
2023-02-16T05:34:52.473Z,-0.30
2023-02-16T05:38:54.133Z,-0.31
2023-02-16T05:42:55.856Z,-0.33
2023-02-16T05:46:57.536Z,-0.33
2023-02-16T05:50:59.102Z,-0.31
2023-02-16T05:55:01.293Z,-0.28
2023-02-16T05:59:05.064Z,-0.31
2023-02-16T06:03:06.809Z,-0.31
2023-02-16T06:07:08.356Z,-0.34
2023-02-16T06:11:46.551Z,-0.25
2023-02-16T06:15:50.673Z,-0.26
2023-02-16T06:19:52.200Z,-0.29
2023-02-16T06:23:54.114Z,-0.28
2023-02-16T06:27:56.853Z,-0.30
2023-02-16T06:31:58.591Z,-0.28
2023-02-16T06:36:00.241Z,-0.16
2023-02-16T06:40:01.771Z,-0.09
2023-02-16T06:44:06.217Z,-0.01
2023-02-16T06:48:07.747Z,0.08
2023-02-16T06:52:09.922Z,0.12
2023-02-16T06:56:11.724Z,0.25
2023-02-16T07:00:15.085Z,0.47
2023-02-16T07:04:17.490Z,0.62
2023-02-16T07:08:19.011Z,0.59
2023-02-16T07:12:20.890Z,0.63
2023-02-16T07:16:22.425Z,0.74
2023-02-16T07:20:24.211Z,0.89
2023-02-16T07:24:26.199Z,1.35
2023-02-16T07:28:27.707Z,1.63
2023-02-16T07:32:29.717Z,1.69
2023-02-16T07:36:31.371Z,1.59
2023-02-16T07:40:32.943Z,1.58
2023-02-16T07:44:34.621Z,1.91
2023-02-16T07:48:36.361Z,2.10
2023-02-16T07:52:38.160Z,2.32
2023-02-16T07:56:39.645Z,3.11
2023-02-16T08:00:41.921Z,3.97
2023-02-16T08:04:43.983Z,4.66
2023-02-16T08:08:46.466Z,4.89
2023-02-16T08:12:49.677Z,6.12
2023-02-16T08:16:54.779Z,6.60
2023-02-16T08:21:04.336Z,6.46
2023-02-16T08:25:07.161Z,7.39
2023-02-16T08:29:10.385Z,8.55
2023-02-16T08:33:12.290Z,8.88
2023-02-16T08:37:41.473Z,9.05
2023-02-16T08:41:44.599Z,9.71
2023-02-16T08:45:47.694Z,10.94
2023-02-16T08:49:49.857Z,10.99
2023-02-16T08:53:52.296Z,12.34
2023-02-16T08:57:53.797Z,12.55
2023-02-16T09:01:59.979Z,12.35
2023-02-16T09:06:04.837Z,12.45
2023-02-16T09:10:08.082Z,12.85
2023-02-16T09:14:10.369Z,13.30
2023-02-16T09:18:12.695Z,13.28
2023-02-16T09:22:15.212Z,12.92
2023-02-16T09:26:18.447Z,13.62
2023-02-16T09:30:20.817Z,14.36
2023-02-16T09:34:23.404Z,16.28
2023-02-16T09:38:25.415Z,15.48
2023-02-16T09:42:48.670Z,15.62
2023-02-16T09:46:50.457Z,16.09
2023-02-16T09:50:54.902Z,16.18
2023-02-16T09:54:59.445Z,16.30
2023-02-16T09:59:12.620Z,16.49
2023-02-16T10:03:20.981Z,17.73
2023-02-16T10:07:32.831Z,19.80
2023-02-16T10:11:48.556Z,20.00
2023-02-16T10:15:53.905Z,20.84
2023-02-16T10:20:01.189Z,21.61
2023-02-16T10:24:07.441Z,20.68
2023-02-16T10:28:17.369Z,23.14
2023-02-16T10:32:27.010Z,23.16
2023-02-16T10:36:56.052Z,22.87
2023-02-16T10:41:13.993Z,24.26
2023-02-16T10:45:34.597Z,25.74
2023-02-16T10:49:37.188Z,27.43
2023-02-16T10:53:54.498Z,27.11
2023-02-16T10:58:00.929Z,27.67
2023-02-16T11:02:16.994Z,27.24
2023-02-16T11:06:22.880Z,29.00
2023-02-16T11:10:48.179Z,28.52
2023-02-16T11:15:02.322Z,27.46
2023-02-16T11:19:07.637Z,27.87
2023-02-16T11:23:22.583Z,28.62
2023-02-16T11:27:24.318Z,30.73
2023-02-16T11:31:33.676Z,31.62
2023-02-16T11:35:43.494Z,31.60
2023-02-16T11:39:55.036Z,31.07
2023-02-16T11:43:57.777Z,32.56
2023-02-16T11:48:13.910Z,33.93
2023-02-16T11:52:27.024Z,34.17
2023-02-16T11:56:31.040Z,33.52
2023-02-16T12:00:34.528Z,34.02
2023-02-16T12:04:42.245Z,32.06
2023-02-16T12:09:14.423Z,34.20
2023-02-16T12:13:33.369Z,34.73
2023-02-16T12:17:34.999Z,36.32
2023-02-16T12:22:16.286Z,36.74
2023-02-16T12:26:42.659Z,35.55
2023-02-16T12:30:58.165Z,34.04
2023-02-16T12:35:18.129Z,35.52
2023-02-16T12:39:55.177Z,37.58
2023-02-16T12:44:08.002Z,33.73
2023-02-16T12:48:30.172Z,33.62
2023-02-16T12:52:54.063Z,34.72
2023-02-16T12:57:01.373Z,34.98
2023-02-16T13:01:12.005Z,33.99
2023-02-16T13:05:21.088Z,31.55
2023-02-16T13:09:50.180Z,29.66
2023-02-16T13:13:56.818Z,29.03
2023-02-16T13:18:06.862Z,28.79
2023-02-16T13:22:37.597Z,27.89
2023-02-16T13:27:18.298Z,26.36
2023-02-16T13:31:35.266Z,27.97
2023-02-16T13:36:18.908Z,28.53
2023-02-16T13:40:34.181Z,26.38
2023-02-16T13:44:45.784Z,26.36
2023-02-16T13:48:50.569Z,25.35
2023-02-16T13:52:54.550Z,25.98
2023-02-16T13:56:56.328Z,25.44
2023-02-16T14:00:59.020Z,26.36
2023-02-16T14:05:03.973Z,26.65
2023-02-16T14:09:14.649Z,28.64
2023-02-16T14:13:17.107Z,28.93
2023-02-16T14:17:21.705Z,27.35
2023-02-16T14:21:41.913Z,27.11
2023-02-16T14:25:43.509Z,25.72
2023-02-16T14:29:59.018Z,24.53
2023-02-16T14:34:12.472Z,24.57
2023-02-16T14:38:29.863Z,22.00
2023-02-16T14:42:34.130Z,21.36
2023-02-16T14:46:54.328Z,21.09
2023-02-16T14:51:01.719Z,20.26
2023-02-16T14:55:29.439Z,19.71
2023-02-16T14:59:57.182Z,20.30
2023-02-16T15:03:58.970Z,21.15
2023-02-16T15:08:16.840Z,22.17
2023-02-16T15:12:22.851Z,18.66
2023-02-16T15:16:24.779Z,15.55
2023-02-16T15:20:31.301Z,14.19
2023-02-16T15:24:34.296Z,12.71
2023-02-16T15:28:38.515Z,12.03
2023-02-16T15:32:41.343Z,10.98
2023-02-16T15:36:45.221Z,10.63
2023-02-16T15:40:47.852Z,10.48
2023-02-16T15:44:49.852Z,9.84
2023-02-16T15:48:51.602Z,9.46
2023-02-16T15:52:53.974Z,9.29
2023-02-16T15:56:58.426Z,9.40
2023-02-16T16:01:00.519Z,9.40
2023-02-16T16:05:05.881Z,9.30
2023-02-16T16:09:17.583Z,8.87
2023-02-16T16:13:24.013Z,8.55
2023-02-16T16:17:31.573Z,8.60
2023-02-16T16:21:39.096Z,8.25
2023-02-16T16:25:47.270Z,8.17
2023-02-16T16:29:48.980Z,7.62
2023-02-16T16:34:04.627Z,7.53
2023-02-16T16:38:21.319Z,7.33
2023-02-16T16:42:23.803Z,7.38
2023-02-16T16:46:29.778Z,7.26
2023-02-16T16:50:39.647Z,7.06
2023-02-16T16:54:41.526Z,7.04
2023-02-16T16:58:43.050Z,6.94
2023-02-16T17:02:45.045Z,6.80
2023-02-16T17:06:46.578Z,6.63
2023-02-16T17:10:48.343Z,6.64
2023-02-16T17:14:49.866Z,6.53
2023-02-16T17:18:51.555Z,6.47
2023-02-16T17:22:53.135Z,6.39
2023-02-16T17:26:55.109Z,6.32
2023-02-16T17:30:57.377Z,6.40
2023-02-16T17:34:59.004Z,6.42
2023-02-16T17:39:00.782Z,6.62
2023-02-16T17:43:02.499Z,6.59
2023-02-16T17:47:04.121Z,6.37
2023-02-16T17:51:10.283Z,6.38
2023-02-16T17:55:12.232Z,6.17
2023-02-16T17:59:15.257Z,6.13
2023-02-16T18:03:18.006Z,6.19
2023-02-16T18:07:19.765Z,6.23
2023-02-16T18:11:21.244Z,6.22
2023-02-16T18:15:22.977Z,6.24
2023-02-16T18:19:24.634Z,6.32
2023-02-16T18:23:26.183Z,6.21
2023-02-16T18:27:29.421Z,5.96
2023-02-16T18:31:31.736Z,6.04
2023-02-16T18:35:33.362Z,6.11
2023-02-16T18:39:34.898Z,6.02
2023-02-16T18:43:37.214Z,6.10
2023-02-16T18:47:38.984Z,6.14
2023-02-16T18:51:40.538Z,5.98
2023-02-16T18:55:42.192Z,5.68
2023-02-16T18:59:43.858Z,5.81
2023-02-16T19:03:45.414Z,5.79
2023-02-16T19:07:47.184Z,5.81
2023-02-16T19:11:49.103Z,5.68
2023-02-16T19:15:50.644Z,5.66
2023-02-16T19:19:52.414Z,5.81
2023-02-16T19:23:53.980Z,5.79
2023-02-16T19:27:55.584Z,5.81
2023-02-16T19:31:57.395Z,5.87
2023-02-16T19:36:04.535Z,5.93
2023-02-16T19:40:08.514Z,5.74
2023-02-16T19:44:14.496Z,5.70
2023-02-16T19:48:16.720Z,5.75
2023-02-16T19:52:18.487Z,5.84
2023-02-16T19:56:23.882Z,6.01
2023-02-16T20:00:25.671Z,5.81
2023-02-16T20:04:27.506Z,5.82
2023-02-16T20:08:29.154Z,5.63
2023-02-16T20:12:30.856Z,5.67
2023-02-16T20:16:32.683Z,5.88
2023-02-16T20:20:35.462Z,6.10
2023-02-16T20:24:37.071Z,6.21
2023-02-16T20:28:39.637Z,6.04
2023-02-16T20:32:41.230Z,6.07
2023-02-16T20:36:42.964Z,6.10
2023-02-16T20:40:45.010Z,6.07
2023-02-16T20:44:46.678Z,6.17
2023-02-16T20:48:49.977Z,6.35
2023-02-16T20:52:51.919Z,6.42
2023-02-16T20:56:53.661Z,6.34
2023-02-16T21:00:55.440Z,6.33
2023-02-16T21:04:57.211Z,6.32
2023-02-16T21:08:58.999Z,6.44
2023-02-16T21:13:01.849Z,6.47
2023-02-16T21:17:04.670Z,6.60
2023-02-16T21:21:07.700Z,6.59
2023-02-16T21:25:09.571Z,6.47
2023-02-16T21:29:12.930Z,6.54
2023-02-16T21:33:15.416Z,6.53
2023-02-16T21:37:19.032Z,6.63
2023-02-16T21:41:28.632Z,6.77
2023-02-16T21:45:30.271Z,6.92
2023-02-16T21:49:31.953Z,7.07
2023-02-16T21:53:38.170Z,7.22
2023-02-16T21:57:39.900Z,7.05
2023-02-16T22:01:44.609Z,7.13
2023-02-16T22:05:46.748Z,7.08
2023-02-16T22:09:48.307Z,7.07
2023-02-16T22:13:55.953Z,7.20
2023-02-16T22:17:57.464Z,7.10
2023-02-16T22:21:59.647Z,7.02
2023-02-16T22:26:01.464Z,7.17
2023-02-16T22:30:12.607Z,7.01
2023-02-16T22:34:17.537Z,7.00
2023-02-16T22:38:19.309Z,6.92
2023-02-16T22:42:22.460Z,6.89
2023-02-16T22:46:25.267Z,6.92
2023-02-16T22:50:27.830Z,7.01
2023-02-16T22:54:29.445Z,7.12
2023-02-16T22:58:33.235Z,7.04
2023-02-16T23:02:37.946Z,7.07
2023-02-16T23:06:39.729Z,7.12
2023-02-16T23:10:59.456Z,6.98
2023-02-16T23:15:01.085Z,7.03
2023-02-16T23:19:03.139Z,7.18
2023-02-16T23:23:04.700Z,7.04
2023-02-16T23:27:06.271Z,7.01
2023-02-16T23:31:08.748Z,7.03
2023-02-16T23:35:10.376Z,7.22
2023-02-16T23:39:16.049Z,7.11
2023-02-16T23:43:17.647Z,7.17
2023-02-16T23:47:19.778Z,7.24
2023-02-16T23:51:21.499Z,7.19
2023-02-16T23:55:23.247Z,7.09
2023-02-16T23:59:25.838Z,7.03
